createdAt,value
2022-09-22T00:01:31.000Z,1.4
2022-09-22T00:05:04.000Z,1.5
2022-09-22T00:08:37.000Z,1.8
2022-09-22T00:12:09.000Z,1.5
2022-09-22T00:15:42.000Z,1.5
2022-09-22T00:19:15.000Z,1.6
2022-09-22T00:22:47.000Z,1.8
2022-09-22T00:25:39.000Z,1.6
2022-09-22T00:29:11.000Z,1.7
2022-09-22T00:32:44.000Z,1.9
2022-09-22T00:36:16.000Z,1.7
2022-09-22T00:39:49.000Z,1.6
2022-09-22T00:43:22.000Z,1.9
2022-09-22T00:46:54.000Z,1.7
2022-09-22T00:50:27.000Z,1.9
2022-09-22T00:54:00.000Z,1.8
2022-09-22T00:57:32.000Z,1.8
2022-09-22T01:01:05.000Z,2
2022-09-22T01:03:56.000Z,2.4
2022-09-22T01:07:29.000Z,2.1
2022-09-22T01:11:01.000Z,2.1
2022-09-22T01:14:34.000Z,2.1
2022-09-22T01:18:06.000Z,2.2
2022-09-22T01:21:39.000Z,2
2022-09-22T01:25:12.000Z,2.1
2022-09-22T01:28:44.000Z,2.3
2022-09-22T01:32:17.000Z,2.2
2022-09-22T01:35:49.000Z,1.9
2022-09-22T01:39:22.000Z,1.8
2022-09-22T01:42:13.000Z,2.3
2022-09-22T01:45:46.000Z,1.8
2022-09-22T01:49:18.000Z,2.1
2022-09-22T01:52:51.000Z,2.3
2022-09-22T01:56:24.000Z,2.4
2022-09-22T01:59:56.000Z,2.5
2022-09-22T02:03:29.000Z,2.3
2022-09-22T02:07:02.000Z,2.2
2022-09-22T02:10:34.000Z,2.5
2022-09-22T02:14:07.000Z,2.1
2022-09-22T02:17:40.000Z,2.2
2022-09-22T02:20:31.000Z,2.3
2022-09-22T02:24:04.000Z,2.2
2022-09-22T02:27:36.000Z,2.2
2022-09-22T02:31:09.000Z,2.2
2022-09-22T02:34:46.000Z,2.4
2022-09-22T02:38:18.000Z,2.2
2022-09-22T02:41:51.000Z,2.2
2022-09-22T02:45:23.000Z,2.6
2022-09-22T02:48:56.000Z,2.6
2022-09-22T02:52:28.000Z,2.6
2022-09-22T02:56:01.000Z,2.2
2022-09-22T02:58:52.000Z,2.8
2022-09-22T03:02:25.000Z,2.9
2022-09-22T03:05:57.000Z,2.6
2022-09-22T03:09:30.000Z,2.5
2022-09-22T03:13:03.000Z,2.5
2022-09-22T03:16:42.000Z,2.3
2022-09-22T03:20:15.000Z,2.4
2022-09-22T03:23:48.000Z,2.8
2022-09-22T03:27:20.000Z,2.3
2022-09-22T03:30:53.000Z,2.4
2022-09-22T03:34:26.000Z,2.6
2022-09-22T03:37:17.000Z,2.9
2022-09-22T03:40:50.000Z,3
2022-09-22T03:44:22.000Z,3.2
2022-09-22T03:47:55.000Z,3.5
2022-09-22T03:51:28.000Z,4.1
2022-09-22T03:55:00.000Z,3.8
2022-09-22T03:58:33.000Z,3.6
2022-09-22T04:02:06.000Z,3.5
2022-09-22T04:05:39.000Z,3.6
2022-09-22T04:09:11.000Z,3.5
2022-09-22T04:12:44.000Z,3.8
2022-09-22T04:15:35.000Z,4.1
2022-09-22T04:19:08.000Z,4.1
2022-09-22T04:22:40.000Z,4.1
2022-09-22T04:26:13.000Z,3.5
2022-09-22T04:29:45.000Z,3.5
2022-09-22T04:33:18.000Z,3.1
2022-09-22T04:36:51.000Z,3.2
2022-09-22T04:40:23.000Z,3.3
2022-09-22T04:43:56.000Z,3
2022-09-22T04:47:29.000Z,4
2022-09-22T04:51:01.000Z,4.3
2022-09-22T04:53:53.000Z,4.3
2022-09-22T04:57:25.000Z,3.8
2022-09-22T05:00:58.000Z,4.2
2022-09-22T05:04:31.000Z,4.1
2022-09-22T05:08:03.000Z,3.5
2022-09-22T05:11:36.000Z,3.8
2022-09-22T05:15:08.000Z,3.4
2022-09-22T05:18:41.000Z,3.4
2022-09-22T05:22:14.000Z,4
2022-09-22T05:25:46.000Z,3.9
2022-09-22T05:29:19.000Z,3.9
2022-09-22T05:32:12.000Z,4.5
2022-09-22T05:35:44.000Z,4.2
2022-09-22T05:39:17.000Z,4.8
2022-09-22T05:42:50.000Z,4.8
2022-09-22T05:46:22.000Z,4.4
2022-09-22T05:49:55.000Z,4.3
2022-09-22T05:53:27.000Z,4.4
2022-09-22T05:57:00.000Z,4.2
2022-09-22T06:00:33.000Z,3.9
2022-09-22T06:04:24.000Z,4.5
2022-09-22T06:07:56.000Z,4.3
2022-09-22T06:10:47.000Z,4.7
2022-09-22T06:14:20.000Z,4.6
2022-09-22T06:17:52.000Z,3.9
2022-09-22T06:21:25.000Z,3.8
2022-09-22T06:24:58.000Z,4.2
2022-09-22T06:28:30.000Z,4.7
2022-09-22T06:32:03.000Z,4.7
2022-09-22T06:35:36.000Z,3.7
2022-09-22T06:39:08.000Z,3.6
2022-09-22T06:42:41.000Z,6.2
2022-09-22T06:46:14.000Z,5.2
2022-09-22T06:49:05.000Z,6.4
2022-09-22T06:52:38.000Z,4.6
2022-09-22T06:56:10.000Z,5.1
2022-09-22T06:59:43.000Z,5
2022-09-22T07:03:16.000Z,6.3
2022-09-22T07:06:48.000Z,6.3
2022-09-22T07:10:21.000Z,5.7
2022-09-22T07:13:53.000Z,6.4
2022-09-22T07:17:26.000Z,5.6
2022-09-22T07:20:59.000Z,5.8
2022-09-22T07:24:31.000Z,5.1
2022-09-22T07:27:22.000Z,5.7
2022-09-22T07:30:55.000Z,4.8
2022-09-22T07:34:28.000Z,4.4
2022-09-22T07:38:00.000Z,7.5
2022-09-22T07:41:33.000Z,5.9
2022-09-22T07:45:06.000Z,5.2
2022-09-22T07:48:39.000Z,4.9
2022-09-22T07:52:11.000Z,4.8
2022-09-22T07:55:44.000Z,4.5
2022-09-22T07:59:16.000Z,5
2022-09-22T08:02:49.000Z,5.4
2022-09-22T08:05:41.000Z,6.7
2022-09-22T08:09:13.000Z,4.9
2022-09-22T08:12:46.000Z,4
2022-09-22T08:16:18.000Z,5.3
2022-09-22T08:19:51.000Z,4.4
2022-09-22T08:23:24.000Z,3.9
2022-09-22T08:26:56.000Z,3.9
2022-09-22T08:30:29.000Z,5.8
2022-09-22T08:34:01.000Z,6.9
2022-09-22T08:37:34.000Z,5
2022-09-22T08:41:07.000Z,4.6
2022-09-22T08:43:58.000Z,7.4
2022-09-22T08:47:30.000Z,6.3
2022-09-22T08:51:03.000Z,6.1
2022-09-22T08:54:36.000Z,6.1
2022-09-22T08:58:08.000Z,5.6
2022-09-22T09:01:41.000Z,5.9
2022-09-22T09:05:14.000Z,7.7
2022-09-22T09:08:46.000Z,5.8
2022-09-22T09:12:19.000Z,6.2
2022-09-22T09:15:52.000Z,6.5
2022-09-22T09:19:24.000Z,8.4
2022-09-22T09:22:16.000Z,5.8
2022-09-22T09:26:18.000Z,6
2022-09-22T09:29:51.000Z,5.7
2022-09-22T09:33:23.000Z,5.5
2022-09-22T09:36:56.000Z,6
2022-09-22T09:40:29.000Z,6.7
2022-09-22T09:44:01.000Z,5.4
2022-09-22T09:47:34.000Z,5.5
2022-09-22T09:51:07.000Z,5
2022-09-22T09:54:39.000Z,4.6
2022-09-22T09:58:12.000Z,4.3
2022-09-22T10:01:03.000Z,4.2
2022-09-22T10:04:36.000Z,4
2022-09-22T10:08:08.000Z,3.5
2022-09-22T10:11:41.000Z,3.4
2022-09-22T10:15:16.000Z,3.1
2022-09-22T10:18:49.000Z,3.2
2022-09-22T10:22:22.000Z,4.3
2022-09-22T10:25:54.000Z,3.4
2022-09-22T10:29:27.000Z,4.7
2022-09-22T10:33:00.000Z,3
2022-09-22T10:36:33.000Z,2.3
2022-09-22T10:39:24.000Z,2
2022-09-22T10:42:57.000Z,1.6
2022-09-22T10:46:41.000Z,1.8
2022-09-22T10:50:14.000Z,1.7
2022-09-22T10:53:46.000Z,1.6
2022-09-22T10:57:19.000Z,1.3
2022-09-22T11:00:52.000Z,1.2
2022-09-22T11:04:24.000Z,1.3
2022-09-22T11:07:57.000Z,1.4
2022-09-22T11:11:30.000Z,1
2022-09-22T11:15:05.000Z,1.3
2022-09-22T11:17:56.000Z,1.3
2022-09-22T11:21:28.000Z,1.5
2022-09-22T11:25:01.000Z,1.4
2022-09-22T11:28:34.000Z,1.2
2022-09-22T11:32:10.000Z,1.1
2022-09-22T11:35:42.000Z,1.5
2022-09-22T11:39:15.000Z,1.2
2022-09-22T11:42:48.000Z,1.8
2022-09-22T11:46:23.000Z,1.4
2022-09-22T11:49:56.000Z,1.1
2022-09-22T11:53:28.000Z,1.1
2022-09-22T11:56:20.000Z,1.2
2022-09-22T11:59:52.000Z,1.1
2022-09-22T12:03:25.000Z,0.9
2022-09-22T12:06:58.000Z,1.2
2022-09-22T12:10:31.000Z,1.7
2022-09-22T12:14:03.000Z,1.4
2022-09-22T12:17:36.000Z,1.1
2022-09-22T12:21:09.000Z,1.3
2022-09-22T12:24:41.000Z,1.4
2022-09-22T12:28:14.000Z,1.4
2022-09-22T12:31:47.000Z,1.4
2022-09-22T12:34:38.000Z,1.3
2022-09-22T12:38:10.000Z,1.3
2022-09-22T12:41:43.000Z,1.3
2022-09-22T12:45:15.000Z,1.2
2022-09-22T12:48:48.000Z,1.1
2022-09-22T12:52:21.000Z,1.2
2022-09-22T12:55:53.000Z,1.1
2022-09-22T12:59:26.000Z,1.2
2022-09-22T13:02:59.000Z,1.1
2022-09-22T13:06:31.000Z,1.3
2022-09-22T13:10:04.000Z,1
2022-09-22T13:12:55.000Z,1.2
2022-09-22T13:16:28.000Z,0.9
2022-09-22T13:20:01.000Z,1.1
2022-09-22T13:23:33.000Z,1.2
2022-09-22T13:27:06.000Z,1.1
2022-09-22T13:30:38.000Z,1.1
2022-09-22T13:34:16.000Z,1
2022-09-22T13:37:49.000Z,0.9
2022-09-22T13:41:22.000Z,0.9
2022-09-22T13:44:54.000Z,1
2022-09-22T13:48:27.000Z,0.8
2022-09-22T13:51:18.000Z,1
2022-09-22T13:54:51.000Z,1.1
2022-09-22T13:58:23.000Z,0.9
2022-09-22T14:01:56.000Z,1.1
2022-09-22T14:05:29.000Z,0.9
2022-09-22T14:09:01.000Z,0.9
2022-09-22T14:12:34.000Z,1
2022-09-22T14:16:07.000Z,0.9
2022-09-22T14:19:39.000Z,1
2022-09-22T14:23:12.000Z,0.8
2022-09-22T14:26:45.000Z,0.9
2022-09-22T14:29:36.000Z,0.7
2022-09-22T14:33:09.000Z,1.1
2022-09-22T14:36:41.000Z,1.2
2022-09-22T14:40:17.000Z,0.7
2022-09-22T14:43:50.000Z,0.8
2022-09-22T14:47:23.000Z,0.9
2022-09-22T14:50:55.000Z,1
2022-09-22T14:54:28.000Z,0.8
2022-09-22T14:58:01.000Z,0.9
2022-09-22T15:01:33.000Z,1
2022-09-22T15:05:06.000Z,0.9
2022-09-22T15:07:57.000Z,0.9
2022-09-22T15:11:29.000Z,0.9
2022-09-22T15:15:02.000Z,1
2022-09-22T15:18:35.000Z,0.8
2022-09-22T15:22:08.000Z,3.7
2022-09-22T15:25:40.000Z,2.6
2022-09-22T15:29:13.000Z,1
2022-09-22T15:32:46.000Z,1.4
2022-09-22T15:36:18.000Z,4.6
2022-09-22T15:39:51.000Z,2.7
2022-09-22T15:43:24.000Z,1.4
2022-09-22T15:46:15.000Z,1
2022-09-22T15:49:47.000Z,1.1
2022-09-22T15:53:20.000Z,1.1
2022-09-22T15:56:53.000Z,1.2
2022-09-22T16:00:25.000Z,1.1
2022-09-22T16:03:58.000Z,1.1
2022-09-22T16:07:31.000Z,1
2022-09-22T16:11:03.000Z,1
2022-09-22T16:14:36.000Z,2.4
2022-09-22T16:18:09.000Z,10.2
2022-09-22T16:21:41.000Z,2.4
2022-09-22T16:24:32.000Z,2.2
2022-09-22T16:28:05.000Z,3.1
2022-09-22T16:31:38.000Z,8.9
2022-09-22T16:35:11.000Z,8.8
2022-09-22T16:38:43.000Z,6.2
2022-09-22T16:42:16.000Z,4.3
2022-09-22T16:45:49.000Z,2
2022-09-22T16:49:22.000Z,2
2022-09-22T16:52:54.000Z,2.2
2022-09-22T16:56:27.000Z,3.4
2022-09-22T16:59:59.000Z,3.2
2022-09-22T17:02:51.000Z,2.2
2022-09-22T17:06:23.000Z,3.2
2022-09-22T17:09:56.000Z,1.5
2022-09-22T17:13:29.000Z,1.6
2022-09-22T17:17:01.000Z,1.6
2022-09-22T17:20:34.000Z,1.2
2022-09-22T17:24:06.000Z,1.6
2022-09-22T17:27:39.000Z,1.5
2022-09-22T17:31:11.000Z,1.4
2022-09-22T17:34:44.000Z,1.3
2022-09-22T17:38:17.000Z,1.5
2022-09-22T17:41:08.000Z,1.4
2022-09-22T17:44:40.000Z,1.4
2022-09-22T17:48:13.000Z,1.4
2022-09-22T17:51:46.000Z,1.5
2022-09-22T17:55:18.000Z,1.4
2022-09-22T17:58:51.000Z,1.3
2022-09-22T18:02:23.000Z,1.5
2022-09-22T18:05:56.000Z,1.6
2022-09-22T18:09:29.000Z,1.6
2022-09-22T18:13:01.000Z,1.5
2022-09-22T18:16:34.000Z,1.5
2022-09-22T18:19:25.000Z,4
2022-09-22T18:22:57.000Z,10
2022-09-22T18:26:30.000Z,3.7
2022-09-22T18:30:03.000Z,4.3
2022-09-22T18:33:41.000Z,4.5
2022-09-22T18:37:13.000Z,3
2022-09-22T18:40:46.000Z,3
2022-09-22T18:44:18.000Z,2.6
2022-09-22T18:47:51.000Z,2.5
2022-09-22T18:51:24.000Z,2.7
2022-09-22T18:54:56.000Z,2.9
2022-09-22T18:57:47.000Z,1.9
2022-09-22T19:01:20.000Z,5.2
2022-09-22T19:04:53.000Z,3.3
2022-09-22T19:08:26.000Z,4.6
2022-09-22T19:11:58.000Z,6.1
2022-09-22T19:15:31.000Z,6.2
2022-09-22T19:22:36.000Z,3.6
2022-09-22T19:26:09.000Z,2.6
2022-09-22T19:29:42.000Z,2.4
2022-09-22T19:33:14.000Z,1.9
2022-09-22T19:36:06.000Z,1.9
2022-09-22T19:39:38.000Z,1.9
2022-09-22T19:43:11.000Z,1.7
2022-09-22T19:46:43.000Z,1.5
2022-09-22T19:50:16.000Z,1.7
2022-09-22T19:53:48.000Z,2
2022-09-22T19:57:21.000Z,1.8
2022-09-22T20:00:54.000Z,1.8
2022-09-22T20:04:26.000Z,2.2
2022-09-22T20:07:59.000Z,2.9
2022-09-22T20:11:31.000Z,4.8
2022-09-22T20:14:23.000Z,7.1
2022-09-22T20:17:55.000Z,4.3
2022-09-22T20:21:28.000Z,4.5
2022-09-22T20:25:00.000Z,2.9
2022-09-22T20:28:33.000Z,2.9
2022-09-22T20:32:06.000Z,2.5
2022-09-22T20:35:38.000Z,2.9
2022-09-22T20:39:11.000Z,2.3
2022-09-22T20:42:44.000Z,2.2
2022-09-22T20:46:16.000Z,2.2
2022-09-22T20:49:49.000Z,2.2
2022-09-22T20:52:40.000Z,2.6
2022-09-22T20:56:13.000Z,2.2
2022-09-22T20:59:46.000Z,2.1
2022-09-22T21:03:18.000Z,2.1
2022-09-22T21:06:56.000Z,2.2
2022-09-22T21:10:28.000Z,2.5
2022-09-22T21:14:01.000Z,3.2
2022-09-22T21:17:34.000Z,8.8
2022-09-22T21:21:09.000Z,12.9
2022-09-22T21:24:41.000Z,8.4
2022-09-22T21:28:14.000Z,4.5
2022-09-22T21:31:05.000Z,3.3
2022-09-22T21:34:38.000Z,2.4
2022-09-22T21:38:10.000Z,2.3
2022-09-22T21:41:43.000Z,2.1
2022-09-22T21:45:16.000Z,2.4
2022-09-22T21:48:48.000Z,2.3
2022-09-22T21:52:21.000Z,2.3
2022-09-22T21:55:53.000Z,2
2022-09-22T21:59:26.000Z,2.8
2022-09-22T22:02:59.000Z,2.4
2022-09-22T22:06:32.000Z,2.2
2022-09-22T22:09:23.000Z,2.5
2022-09-22T22:12:55.000Z,2.7
2022-09-22T22:16:28.000Z,2.6
2022-09-22T22:20:00.000Z,2.6
2022-09-22T22:23:33.000Z,2.3
2022-09-22T22:27:05.000Z,3.3
2022-09-22T22:30:38.000Z,4
2022-09-22T22:34:10.000Z,4.9
2022-09-22T22:37:43.000Z,8.4
2022-09-22T22:41:16.000Z,9
2022-09-22T22:44:48.000Z,9.1
2022-09-22T22:47:40.000Z,8
2022-09-22T22:51:12.000Z,5.3
2022-09-22T22:54:45.000Z,3.8
2022-09-22T22:58:17.000Z,3.2
2022-09-22T23:01:50.000Z,2.6
2022-09-22T23:05:23.000Z,3
2022-09-22T23:08:56.000Z,2.6
2022-09-22T23:12:28.000Z,2.3
2022-09-22T23:16:01.000Z,2.5
2022-09-22T23:19:34.000Z,3
2022-09-22T23:23:06.000Z,2.8
2022-09-22T23:25:57.000Z,2.6
2022-09-22T23:29:30.000Z,2.9
2022-09-22T23:33:02.000Z,2.8
2022-09-22T23:36:35.000Z,2.8
2022-09-22T23:40:10.000Z,2.7
2022-09-22T23:43:42.000Z,3.1
2022-09-22T23:47:15.000Z,3
2022-09-22T23:50:48.000Z,2.7
2022-09-22T23:54:20.000Z,2.9
2022-09-22T23:57:53.000Z,3
